sensor_id;sensor_type;location;lat;lon;timestamp;P1;durP1;ratioP1;P2;durP2;ratioP2
51943;SDS011;37969;53.132;6.370;2024-03-17T00:02:20;8.57;;;2.97;;
51943;SDS011;37969;53.132;6.370;2024-03-17T00:04:47;8.10;;;2.90;;
51943;SDS011;37969;53.132;6.370;2024-03-17T00:07:14;14.60;;;4.25;;
51943;SDS011;37969;53.132;6.370;2024-03-17T00:09:41;9.20;;;3.65;;
51943;SDS011;37969;53.132;6.370;2024-03-17T00:12:08;11.93;;;3.70;;
51943;SDS011;37969;53.132;6.370;2024-03-17T00:14:36;9.18;;;4.05;;
51943;SDS011;37969;53.132;6.370;2024-03-17T00:17:07;11.30;;;3.22;;
51943;SDS011;37969;53.132;6.370;2024-03-17T00:19:35;9.05;;;3.28;;
51943;SDS011;37969;53.132;6.370;2024-03-17T00:22:01;7.15;;;2.97;;
51943;SDS011;37969;53.132;6.370;2024-03-17T00:24:28;10.70;;;3.40;;
51943;SDS011;37969;53.132;6.370;2024-03-17T00:27:00;6.50;;;3.20;;
51943;SDS011;37969;53.132;6.370;2024-03-17T00:29:26;11.38;;;3.50;;
51943;SDS011;37969;53.132;6.370;2024-03-17T00:31:53;4.20;;;2.88;;
51943;SDS011;37969;53.132;6.370;2024-03-17T00:34:21;9.35;;;2.60;;
51943;SDS011;37969;53.132;6.370;2024-03-17T00:36:48;6.57;;;2.88;;
51943;SDS011;37969;53.132;6.370;2024-03-17T00:39:14;5.13;;;2.90;;
51943;SDS011;37969;53.132;6.370;2024-03-17T00:41:43;8.90;;;2.45;;
51943;SDS011;37969;53.132;6.370;2024-03-17T00:44:10;9.93;;;4.03;;
51943;SDS011;37969;53.132;6.370;2024-03-17T00:46:39;8.13;;;3.92;;
51943;SDS011;37969;53.132;6.370;2024-03-17T00:49:07;5.78;;;3.80;;
51943;SDS011;37969;53.132;6.370;2024-03-17T00:51:35;7.63;;;3.40;;
51943;SDS011;37969;53.132;6.370;2024-03-17T00:56:31;10.35;;;3.25;;
51943;SDS011;37969;53.132;6.370;2024-03-17T00:58:58;9.40;;;3.30;;
51943;SDS011;37969;53.132;6.370;2024-03-17T01:01:26;8.85;;;3.53;;
51943;SDS011;37969;53.132;6.370;2024-03-17T01:03:53;8.05;;;3.33;;
51943;SDS011;37969;53.132;6.370;2024-03-17T01:06:20;8.07;;;3.72;;
51943;SDS011;37969;53.132;6.370;2024-03-17T01:08:47;8.57;;;3.80;;
51943;SDS011;37969;53.132;6.370;2024-03-17T01:11:15;10.45;;;3.75;;
51943;SDS011;37969;53.132;6.370;2024-03-17T01:13:44;14.85;;;4.22;;
51943;SDS011;37969;53.132;6.370;2024-03-17T01:16:11;7.72;;;3.40;;
51943;SDS011;37969;53.132;6.370;2024-03-17T01:18:37;7.60;;;4.10;;
51943;SDS011;37969;53.132;6.370;2024-03-17T01:21:08;11.48;;;4.20;;
51943;SDS011;37969;53.132;6.370;2024-03-17T01:23:34;7.03;;;3.30;;
51943;SDS011;37969;53.132;6.370;2024-03-17T01:26:02;6.03;;;3.40;;
51943;SDS011;37969;53.132;6.370;2024-03-17T01:28:29;9.70;;;3.38;;
51943;SDS011;37969;53.132;6.370;2024-03-17T01:30:55;5.55;;;3.00;;
51943;SDS011;37969;53.132;6.370;2024-03-17T01:33:23;11.75;;;3.33;;
51943;SDS011;37969;53.132;6.370;2024-03-17T01:35:52;10.82;;;3.28;;
51943;SDS011;37969;53.132;6.370;2024-03-17T01:38:20;8.40;;;3.53;;
51943;SDS011;37969;53.132;6.370;2024-03-17T01:40:46;6.32;;;3.00;;
51943;SDS011;37969;53.132;6.370;2024-03-17T01:43:12;6.80;;;3.30;;
51943;SDS011;37969;53.132;6.370;2024-03-17T01:45:39;4.90;;;3.03;;
51943;SDS011;37969;53.132;6.370;2024-03-17T01:48:08;4.28;;;2.63;;
51943;SDS011;37969;53.132;6.370;2024-03-17T01:50:36;6.18;;;2.40;;
51943;SDS011;37969;53.132;6.370;2024-03-17T01:53:04;5.70;;;2.80;;
51943;SDS011;37969;53.132;6.370;2024-03-17T01:55:33;8.50;;;3.55;;
51943;SDS011;37969;53.132;6.370;2024-03-17T01:58:02;4.93;;;2.67;;
51943;SDS011;37969;53.132;6.370;2024-03-17T02:00:33;4.65;;;2.90;;
51943;SDS011;37969;53.132;6.370;2024-03-17T02:03:04;7.28;;;2.90;;
51943;SDS011;37969;53.132;6.370;2024-03-17T02:05:34;3.40;;;2.92;;
51943;SDS011;37969;53.132;6.370;2024-03-17T02:08:03;8.98;;;3.17;;
51943;SDS011;37969;53.132;6.370;2024-03-17T02:10:29;6.28;;;2.85;;
51943;SDS011;37969;53.132;6.370;2024-03-17T02:12:55;7.95;;;3.13;;
51943;SDS011;37969;53.132;6.370;2024-03-17T02:15:21;9.20;;;2.92;;
51943;SDS011;37969;53.132;6.370;2024-03-17T02:17:48;7.72;;;3.00;;
51943;SDS011;37969;53.132;6.370;2024-03-17T02:20:15;7.57;;;2.70;;
51943;SDS011;37969;53.132;6.370;2024-03-17T02:22:41;8.65;;;3.20;;
51943;SDS011;37969;53.132;6.370;2024-03-17T02:25:07;3.25;;;2.40;;
51943;SDS011;37969;53.132;6.370;2024-03-17T02:27:35;4.22;;;3.13;;
51943;SDS011;37969;53.132;6.370;2024-03-17T02:30:03;9.27;;;3.35;;
51943;SDS011;37969;53.132;6.370;2024-03-17T02:32:34;6.20;;;2.90;;
51943;SDS011;37969;53.132;6.370;2024-03-17T02:35:02;12.95;;;3.40;;
51943;SDS011;37969;53.132;6.370;2024-03-17T02:37:31;4.38;;;2.88;;
51943;SDS011;37969;53.132;6.370;2024-03-17T02:39:58;3.55;;;2.70;;
51943;SDS011;37969;53.132;6.370;2024-03-17T02:42:25;8.80;;;3.17;;
51943;SDS011;37969;53.132;6.370;2024-03-17T02:44:53;4.28;;;2.83;;
51943;SDS011;37969;53.132;6.370;2024-03-17T02:47:20;9.05;;;3.33;;
51943;SDS011;37969;53.132;6.370;2024-03-17T02:49:49;5.70;;;2.90;;
51943;SDS011;37969;53.132;6.370;2024-03-17T02:52:17;6.80;;;2.92;;
51943;SDS011;37969;53.132;6.370;2024-03-17T02:54:44;5.53;;;2.60;;
51943;SDS011;37969;53.132;6.370;2024-03-17T02:57:10;12.65;;;3.30;;
51943;SDS011;37969;53.132;6.370;2024-03-17T02:59:40;7.60;;;3.05;;
51943;SDS011;37969;53.132;6.370;2024-03-17T03:02:08;7.25;;;3.22;;
51943;SDS011;37969;53.132;6.370;2024-03-17T03:04:35;12.20;;;3.55;;
51943;SDS011;37969;53.132;6.370;2024-03-17T03:07:03;8.70;;;3.80;;
51943;SDS011;37969;53.132;6.370;2024-03-17T03:09:33;5.75;;;3.10;;
51943;SDS011;37969;53.132;6.370;2024-03-17T03:11:59;8.00;;;3.38;;
51943;SDS011;37969;53.132;6.370;2024-03-17T03:14:33;8.68;;;3.88;;
51943;SDS011;37969;53.132;6.370;2024-03-17T03:17:00;8.40;;;3.00;;
51943;SDS011;37969;53.132;6.370;2024-03-17T03:19:27;12.20;;;3.40;;
51943;SDS011;37969;53.132;6.370;2024-03-17T03:21:59;11.13;;;4.15;;
51943;SDS011;37969;53.132;6.370;2024-03-17T03:24:27;8.25;;;3.30;;
51943;SDS011;37969;53.132;6.370;2024-03-17T03:26:53;10.05;;;3.63;;
51943;SDS011;37969;53.132;6.370;2024-03-17T03:29:20;5.70;;;3.20;;
51943;SDS011;37969;53.132;6.370;2024-03-17T03:31:47;9.02;;;3.60;;
51943;SDS011;37969;53.132;6.370;2024-03-17T03:34:14;5.60;;;3.80;;
51943;SDS011;37969;53.132;6.370;2024-03-17T03:36:43;10.38;;;3.80;;
51943;SDS011;37969;53.132;6.370;2024-03-17T03:39:11;11.40;;;3.70;;
51943;SDS011;37969;53.132;6.370;2024-03-17T03:41:39;11.10;;;3.75;;
51943;SDS011;37969;53.132;6.370;2024-03-17T03:44:08;18.20;;;4.57;;
51943;SDS011;37969;53.132;6.370;2024-03-17T03:46:35;9.82;;;3.92;;
51943;SDS011;37969;53.132;6.370;2024-03-17T03:51:32;9.07;;;3.38;;
51943;SDS011;37969;53.132;6.370;2024-03-17T03:54:04;10.43;;;3.92;;
51943;SDS011;37969;53.132;6.370;2024-03-17T03:56:32;12.35;;;4.20;;
51943;SDS011;37969;53.132;6.370;2024-03-17T03:59:02;9.07;;;4.40;;
51943;SDS011;37969;53.132;6.370;2024-03-17T04:01:28;11.77;;;4.00;;
51943;SDS011;37969;53.132;6.370;2024-03-17T04:03:57;9.50;;;3.90;;
51943;SDS011;37969;53.132;6.370;2024-03-17T04:06:26;8.48;;;3.97;;
51943;SDS011;37969;53.132;6.370;2024-03-17T04:08:55;11.88;;;4.90;;
51943;SDS011;37969;53.132;6.370;2024-03-17T04:11:21;15.27;;;4.72;;
51943;SDS011;37969;53.132;6.370;2024-03-17T04:13:48;13.32;;;5.30;;
51943;SDS011;37969;53.132;6.370;2024-03-17T04:16:14;13.02;;;4.30;;
51943;SDS011;37969;53.132;6.370;2024-03-17T04:18:42;13.52;;;4.68;;
51943;SDS011;37969;53.132;6.370;2024-03-17T04:21:11;11.80;;;4.80;;
51943;SDS011;37969;53.132;6.370;2024-03-17T04:23:39;15.98;;;4.18;;
51943;SDS011;37969;53.132;6.370;2024-03-17T04:26:10;13.05;;;4.43;;
51943;SDS011;37969;53.132;6.370;2024-03-17T04:28:39;7.03;;;4.20;;
51943;SDS011;37969;53.132;6.370;2024-03-17T04:31:06;12.50;;;4.13;;
51943;SDS011;37969;53.132;6.370;2024-03-17T04:33:33;10.45;;;3.80;;
51943;SDS011;37969;53.132;6.370;2024-03-17T04:36:01;11.02;;;3.97;;
51943;SDS011;37969;53.132;6.370;2024-03-17T04:38:27;9.98;;;4.25;;
51943;SDS011;37969;53.132;6.370;2024-03-17T04:40:56;12.93;;;4.63;;
51943;SDS011;37969;53.132;6.370;2024-03-17T04:43:29;8.38;;;4.00;;
51943;SDS011;37969;53.132;6.370;2024-03-17T04:46:01;10.70;;;4.00;;
51943;SDS011;37969;53.132;6.370;2024-03-17T04:48:32;14.20;;;4.53;;
51943;SDS011;37969;53.132;6.370;2024-03-17T04:51:00;8.57;;;4.50;;
51943;SDS011;37969;53.132;6.370;2024-03-17T04:53:27;12.73;;;4.45;;
51943;SDS011;37969;53.132;6.370;2024-03-17T04:56:03;11.60;;;4.90;;
51943;SDS011;37969;53.132;6.370;2024-03-17T04:58:32;9.57;;;4.63;;
51943;SDS011;37969;53.132;6.370;2024-03-17T05:01:07;9.93;;;4.22;;
51943;SDS011;37969;53.132;6.370;2024-03-17T05:03:36;10.13;;;3.80;;
51943;SDS011;37969;53.132;6.370;2024-03-17T05:06:05;11.70;;;4.80;;
51943;SDS011;37969;53.132;6.370;2024-03-17T05:08:34;10.45;;;4.72;;
51943;SDS011;37969;53.132;6.370;2024-03-17T05:11:01;11.90;;;4.57;;
51943;SDS011;37969;53.132;6.370;2024-03-17T05:13:32;16.35;;;4.65;;
51943;SDS011;37969;53.132;6.370;2024-03-17T05:16:03;12.32;;;4.57;;
51943;SDS011;37969;53.132;6.370;2024-03-17T05:18:35;15.07;;;5.35;;
51943;SDS011;37969;53.132;6.370;2024-03-17T05:21:05;11.05;;;4.78;;
51943;SDS011;37969;53.132;6.370;2024-03-17T05:23:33;13.35;;;4.20;;
51943;SDS011;37969;53.132;6.370;2024-03-17T05:26:00;15.02;;;4.18;;
51943;SDS011;37969;53.132;6.370;2024-03-17T05:28:30;9.35;;;4.13;;
51943;SDS011;37969;53.132;6.370;2024-03-17T05:30:56;11.75;;;3.83;;
51943;SDS011;37969;53.132;6.370;2024-03-17T05:33:24;12.05;;;4.28;;
51943;SDS011;37969;53.132;6.370;2024-03-17T05:35:52;14.07;;;4.07;;
51943;SDS011;37969;53.132;6.370;2024-03-17T05:38:24;12.93;;;4.30;;
51943;SDS011;37969;53.132;6.370;2024-03-17T05:40:57;17.38;;;5.25;;
51943;SDS011;37969;53.132;6.370;2024-03-17T05:43:25;14.05;;;5.20;;
51943;SDS011;37969;53.132;6.370;2024-03-17T05:45:53;15.43;;;4.25;;
51943;SDS011;37969;53.132;6.370;2024-03-17T05:48:20;14.98;;;4.03;;
51943;SDS011;37969;53.132;6.370;2024-03-17T05:50:50;15.20;;;4.82;;
51943;SDS011;37969;53.132;6.370;2024-03-17T05:53:21;8.98;;;4.22;;
51943;SDS011;37969;53.132;6.370;2024-03-17T05:55:50;9.70;;;3.72;;
51943;SDS011;37969;53.132;6.370;2024-03-17T05:58:20;18.13;;;4.85;;
51943;SDS011;37969;53.132;6.370;2024-03-17T06:00:48;13.25;;;4.45;;
51943;SDS011;37969;53.132;6.370;2024-03-17T06:03:14;10.38;;;4.43;;
51943;SDS011;37969;53.132;6.370;2024-03-17T06:05:42;14.48;;;4.70;;
51943;SDS011;37969;53.132;6.370;2024-03-17T06:08:10;11.43;;;4.53;;
51943;SDS011;37969;53.132;6.370;2024-03-17T06:10:37;16.23;;;4.50;;
51943;SDS011;37969;53.132;6.370;2024-03-17T06:13:07;14.52;;;5.07;;
51943;SDS011;37969;53.132;6.370;2024-03-17T06:15:42;13.10;;;4.60;;
51943;SDS011;37969;53.132;6.370;2024-03-17T06:18:11;19.15;;;5.47;;
51943;SDS011;37969;53.132;6.370;2024-03-17T06:20:43;16.25;;;5.40;;
51943;SDS011;37969;53.132;6.370;2024-03-17T06:28:05;16.90;;;5.38;;
51943;SDS011;37969;53.132;6.370;2024-03-17T06:30:33;15.07;;;5.28;;
51943;SDS011;37969;53.132;6.370;2024-03-17T06:33:01;14.50;;;5.28;;
51943;SDS011;37969;53.132;6.370;2024-03-17T06:35:30;15.95;;;4.40;;
51943;SDS011;37969;53.132;6.370;2024-03-17T06:37:58;20.80;;;5.47;;
51943;SDS011;37969;53.132;6.370;2024-03-17T06:40:26;14.77;;;4.47;;
51943;SDS011;37969;53.132;6.370;2024-03-17T06:42:53;9.85;;;4.82;;
51943;SDS011;37969;53.132;6.370;2024-03-17T06:45:19;14.35;;;4.88;;
51943;SDS011;37969;53.132;6.370;2024-03-17T06:47:46;12.93;;;4.35;;
51943;SDS011;37969;53.132;6.370;2024-03-17T06:50:15;14.85;;;4.88;;
51943;SDS011;37969;53.132;6.370;2024-03-17T06:52:42;16.40;;;4.55;;
51943;SDS011;37969;53.132;6.370;2024-03-17T06:55:11;10.98;;;4.20;;
51943;SDS011;37969;53.132;6.370;2024-03-17T06:57:41;14.65;;;4.30;;
51943;SDS011;37969;53.132;6.370;2024-03-17T07:00:12;14.32;;;4.38;;
51943;SDS011;37969;53.132;6.370;2024-03-17T07:02:40;11.45;;;4.75;;
51943;SDS011;37969;53.132;6.370;2024-03-17T07:05:11;13.90;;;4.83;;
51943;SDS011;37969;53.132;6.370;2024-03-17T07:07:40;18.85;;;5.05;;
51943;SDS011;37969;53.132;6.370;2024-03-17T07:10:07;10.95;;;4.70;;
51943;SDS011;37969;53.132;6.370;2024-03-17T07:12:36;14.97;;;4.40;;
51943;SDS011;37969;53.132;6.370;2024-03-17T07:15:02;18.63;;;4.28;;
51943;SDS011;37969;53.132;6.370;2024-03-17T07:17:29;15.30;;;3.92;;
51943;SDS011;37969;53.132;6.370;2024-03-17T07:19:56;11.80;;;3.60;;
51943;SDS011;37969;53.132;6.370;2024-03-17T07:22:25;14.45;;;4.18;;
51943;SDS011;37969;53.132;6.370;2024-03-17T07:24:52;11.70;;;4.25;;
51943;SDS011;37969;53.132;6.370;2024-03-17T07:27:25;16.77;;;4.13;;
51943;SDS011;37969;53.132;6.370;2024-03-17T07:29:52;10.45;;;3.97;;
51943;SDS011;37969;53.132;6.370;2024-03-17T07:32:19;14.95;;;4.28;;
51943;SDS011;37969;53.132;6.370;2024-03-17T07:34:48;7.82;;;3.80;;
51943;SDS011;37969;53.132;6.370;2024-03-17T07:37:17;12.32;;;3.92;;
51943;SDS011;37969;53.132;6.370;2024-03-17T07:39:45;13.43;;;3.92;;
51943;SDS011;37969;53.132;6.370;2024-03-17T07:42:14;12.15;;;3.90;;
51943;SDS011;37969;53.132;6.370;2024-03-17T07:44:44;12.68;;;3.33;;
51943;SDS011;37969;53.132;6.370;2024-03-17T07:47:10;15.02;;;3.67;;
51943;SDS011;37969;53.132;6.370;2024-03-17T07:49:37;17.88;;;4.13;;
51943;SDS011;37969;53.132;6.370;2024-03-17T07:52:03;14.48;;;4.05;;
51943;SDS011;37969;53.132;6.370;2024-03-17T07:54:30;13.55;;;3.42;;
51943;SDS011;37969;53.132;6.370;2024-03-17T07:57:02;13.98;;;4.03;;
51943;SDS011;37969;53.132;6.370;2024-03-17T07:59:29;13.38;;;3.47;;
51943;SDS011;37969;53.132;6.370;2024-03-17T08:01:56;10.52;;;3.40;;
51943;SDS011;37969;53.132;6.370;2024-03-17T08:04:27;10.85;;;3.55;;
51943;SDS011;37969;53.132;6.370;2024-03-17T08:06:56;15.35;;;4.05;;
51943;SDS011;37969;53.132;6.370;2024-03-17T08:09:22;12.52;;;4.07;;
51943;SDS011;37969;53.132;6.370;2024-03-17T08:11:49;8.10;;;3.35;;
51943;SDS011;37969;53.132;6.370;2024-03-17T08:14:17;10.20;;;3.78;;
51943;SDS011;37969;53.132;6.370;2024-03-17T08:16:46;12.68;;;3.88;;
51943;SDS011;37969;53.132;6.370;2024-03-17T08:19:12;14.82;;;3.80;;
51943;SDS011;37969;53.132;6.370;2024-03-17T08:21:40;15.07;;;3.85;;
51943;SDS011;37969;53.132;6.370;2024-03-17T08:24:08;12.35;;;3.92;;
51943;SDS011;37969;53.132;6.370;2024-03-17T08:26:35;12.35;;;4.85;;
51943;SDS011;37969;53.132;6.370;2024-03-17T08:29:05;9.05;;;3.47;;
51943;SDS011;37969;53.132;6.370;2024-03-17T08:31:33;10.13;;;3.65;;
51943;SDS011;37969;53.132;6.370;2024-03-17T08:34:01;11.65;;;4.72;;
51943;SDS011;37969;53.132;6.370;2024-03-17T08:36:28;15.10;;;4.75;;
51943;SDS011;37969;53.132;6.370;2024-03-17T08:38:55;9.68;;;4.50;;
51943;SDS011;37969;53.132;6.370;2024-03-17T08:41:22;14.27;;;5.00;;
51943;SDS011;37969;53.132;6.370;2024-03-17T08:43:48;12.82;;;5.10;;
51943;SDS011;37969;53.132;6.370;2024-03-17T08:46:16;11.70;;;5.18;;
51943;SDS011;37969;53.132;6.370;2024-03-17T08:48:43;16.63;;;5.88;;
51943;SDS011;37969;53.132;6.370;2024-03-17T08:51:12;14.60;;;6.27;;
51943;SDS011;37969;53.132;6.370;2024-03-17T08:53:40;15.55;;;6.13;;
51943;SDS011;37969;53.132;6.370;2024-03-17T08:56:07;13.32;;;7.07;;
51943;SDS011;37969;53.132;6.370;2024-03-17T08:58:34;19.30;;;7.93;;
51943;SDS011;37969;53.132;6.370;2024-03-17T09:01:04;18.27;;;7.93;;
51943;SDS011;37969;53.132;6.370;2024-03-17T09:03:30;18.30;;;7.63;;
51943;SDS011;37969;53.132;6.370;2024-03-17T09:05:57;14.32;;;7.28;;
51943;SDS011;37969;53.132;6.370;2024-03-17T09:08:25;18.17;;;7.57;;
51943;SDS011;37969;53.132;6.370;2024-03-17T09:10:53;15.88;;;8.15;;
51943;SDS011;37969;53.132;6.370;2024-03-17T09:13:23;15.07;;;7.95;;
51943;SDS011;37969;53.132;6.370;2024-03-17T09:15:57;15.13;;;7.82;;
51943;SDS011;37969;53.132;6.370;2024-03-17T09:18:25;16.85;;;8.40;;
51943;SDS011;37969;53.132;6.370;2024-03-17T09:21:00;17.35;;;7.97;;
51943;SDS011;37969;53.132;6.370;2024-03-17T09:23:33;17.92;;;8.75;;
51943;SDS011;37969;53.132;6.370;2024-03-17T09:26:07;17.15;;;8.40;;
51943;SDS011;37969;53.132;6.370;2024-03-17T09:28:39;18.55;;;8.25;;
51943;SDS011;37969;53.132;6.370;2024-03-17T09:31:07;30.48;;;8.90;;
51943;SDS011;37969;53.132;6.370;2024-03-17T09:33:37;15.52;;;7.80;;
51943;SDS011;37969;53.132;6.370;2024-03-17T09:36:08;18.70;;;9.00;;
51943;SDS011;37969;53.132;6.370;2024-03-17T09:38:40;17.60;;;8.68;;
51943;SDS011;37969;53.132;6.370;2024-03-17T09:41:09;16.63;;;8.73;;
51943;SDS011;37969;53.132;6.370;2024-03-17T09:43:40;16.40;;;7.97;;
51943;SDS011;37969;53.132;6.370;2024-03-17T09:46:06;13.48;;;8.25;;
51943;SDS011;37969;53.132;6.370;2024-03-17T09:48:36;18.15;;;8.48;;
51943;SDS011;37969;53.132;6.370;2024-03-17T09:51:03;14.48;;;7.30;;
51943;SDS011;37969;53.132;6.370;2024-03-17T09:53:33;16.00;;;8.02;;
51943;SDS011;37969;53.132;6.370;2024-03-17T09:56:08;11.38;;;7.78;;
51943;SDS011;37969;53.132;6.370;2024-03-17T09:58:36;16.90;;;8.40;;
51943;SDS011;37969;53.132;6.370;2024-03-17T10:01:06;15.40;;;8.35;;
51943;SDS011;37969;53.132;6.370;2024-03-17T10:06:15;16.30;;;8.75;;
51943;SDS011;37969;53.132;6.370;2024-03-17T10:08:42;11.65;;;7.88;;
51943;SDS011;37969;53.132;6.370;2024-03-17T10:11:08;17.67;;;8.50;;
51943;SDS011;37969;53.132;6.370;2024-03-17T10:13:36;21.25;;;8.65;;
51943;SDS011;37969;53.132;6.370;2024-03-17T10:16:03;19.60;;;9.05;;
51943;SDS011;37969;53.132;6.370;2024-03-17T10:18:34;13.07;;;9.07;;
51943;SDS011;37969;53.132;6.370;2024-03-17T10:21:01;14.80;;;8.82;;
51943;SDS011;37969;53.132;6.370;2024-03-17T10:23:30;16.92;;;9.02;;
51943;SDS011;37969;53.132;6.370;2024-03-17T10:25:57;16.63;;;9.05;;
51943;SDS011;37969;53.132;6.370;2024-03-17T10:28:29;16.50;;;8.48;;
51943;SDS011;37969;53.132;6.370;2024-03-17T10:30:59;15.15;;;8.85;;
51943;SDS011;37969;53.132;6.370;2024-03-17T10:33:27;15.77;;;8.98;;
51943;SDS011;37969;53.132;6.370;2024-03-17T10:35:58;15.85;;;8.70;;
51943;SDS011;37969;53.132;6.370;2024-03-17T10:38:30;14.93;;;8.95;;
51943;SDS011;37969;53.132;6.370;2024-03-17T10:40:59;12.25;;;7.82;;
51943;SDS011;37969;53.132;6.370;2024-03-17T10:43:28;16.98;;;8.98;;
51943;SDS011;37969;53.132;6.370;2024-03-17T10:45:54;15.07;;;8.93;;
51943;SDS011;37969;53.132;6.370;2024-03-17T10:48:31;14.90;;;9.35;;
51943;SDS011;37969;53.132;6.370;2024-03-17T10:51:00;16.85;;;9.50;;
51943;SDS011;37969;53.132;6.370;2024-03-17T10:53:28;16.20;;;9.55;;
51943;SDS011;37969;53.132;6.370;2024-03-17T10:56:05;18.95;;;9.27;;
51943;SDS011;37969;53.132;6.370;2024-03-17T10:58:34;12.20;;;8.45;;
51943;SDS011;37969;53.132;6.370;2024-03-17T11:01:11;14.98;;;9.10;;
51943;SDS011;37969;53.132;6.370;2024-03-17T11:03:39;12.88;;;9.38;;
51943;SDS011;37969;53.132;6.370;2024-03-17T11:06:06;14.10;;;8.60;;
51943;SDS011;37969;53.132;6.370;2024-03-17T11:08:34;12.45;;;8.95;;
51943;SDS011;37969;53.132;6.370;2024-03-17T11:11:02;14.30;;;8.35;;
51943;SDS011;37969;53.132;6.370;2024-03-17T11:13:29;12.13;;;8.75;;
51943;SDS011;37969;53.132;6.370;2024-03-17T11:15:56;18.10;;;9.27;;
51943;SDS011;37969;53.132;6.370;2024-03-17T11:18:31;16.95;;;8.88;;
51943;SDS011;37969;53.132;6.370;2024-03-17T11:21:01;13.18;;;8.95;;
51943;SDS011;37969;53.132;6.370;2024-03-17T11:23:32;16.17;;;9.13;;
51943;SDS011;37969;53.132;6.370;2024-03-17T11:25:59;12.25;;;8.63;;
51943;SDS011;37969;53.132;6.370;2024-03-17T11:33:58;11.57;;;8.70;;
51943;SDS011;37969;53.132;6.370;2024-03-17T11:38:59;13.27;;;8.27;;
51943;SDS011;37969;53.132;6.370;2024-03-17T11:44:13;13.35;;;8.38;;
51943;SDS011;37969;53.132;6.370;2024-03-17T11:49:18;13.40;;;8.70;;
51943;SDS011;37969;53.132;6.370;2024-03-17T11:51:46;9.77;;;7.75;;
51943;SDS011;37969;53.132;6.370;2024-03-17T11:54:15;14.23;;;7.90;;
51943;SDS011;37969;53.132;6.370;2024-03-17T11:56:45;14.90;;;8.70;;
51943;SDS011;37969;53.132;6.370;2024-03-17T11:59:14;13.13;;;8.45;;
51943;SDS011;37969;53.132;6.370;2024-03-17T12:01:46;14.38;;;8.60;;
51943;SDS011;37969;53.132;6.370;2024-03-17T12:04:14;10.18;;;8.10;;
51943;SDS011;37969;53.132;6.370;2024-03-17T12:06:44;12.23;;;8.60;;
51943;SDS011;37969;53.132;6.370;2024-03-17T12:09:23;13.73;;;8.70;;
51943;SDS011;37969;53.132;6.370;2024-03-17T12:12:00;14.27;;;9.20;;
51943;SDS011;37969;53.132;6.370;2024-03-17T12:14:27;14.55;;;9.20;;
51943;SDS011;37969;53.132;6.370;2024-03-17T12:16:54;15.38;;;9.38;;
51943;SDS011;37969;53.132;6.370;2024-03-17T12:19:24;15.65;;;8.63;;
51943;SDS011;37969;53.132;6.370;2024-03-17T12:21:51;11.65;;;8.80;;
51943;SDS011;37969;53.132;6.370;2024-03-17T12:24:20;14.55;;;8.70;;
51943;SDS011;37969;53.132;6.370;2024-03-17T12:26:50;10.23;;;8.02;;
51943;SDS011;37969;53.132;6.370;2024-03-17T12:29:22;15.07;;;9.00;;
51943;SDS011;37969;53.132;6.370;2024-03-17T12:31:53;16.05;;;8.95;;
51943;SDS011;37969;53.132;6.370;2024-03-17T12:34:25;14.35;;;10.10;;
51943;SDS011;37969;53.132;6.370;2024-03-17T12:36:55;15.68;;;9.48;;
51943;SDS011;37969;53.132;6.370;2024-03-17T12:39:25;15.55;;;9.65;;
51943;SDS011;37969;53.132;6.370;2024-03-17T12:42:04;9.82;;;8.13;;
51943;SDS011;37969;53.132;6.370;2024-03-17T12:44:35;10.60;;;8.95;;
51943;SDS011;37969;53.132;6.370;2024-03-17T12:47:07;13.60;;;8.75;;
51943;SDS011;37969;53.132;6.370;2024-03-17T12:49:35;10.77;;;9.02;;
51943;SDS011;37969;53.132;6.370;2024-03-17T12:52:02;11.63;;;8.77;;
51943;SDS011;37969;53.132;6.370;2024-03-17T12:54:35;11.73;;;8.98;;
51943;SDS011;37969;53.132;6.370;2024-03-17T12:57:03;13.57;;;9.35;;
51943;SDS011;37969;53.132;6.370;2024-03-17T13:00:16;9.63;;;8.63;;
51943;SDS011;37969;53.132;6.370;2024-03-17T13:02:57;11.30;;;8.45;;
51943;SDS011;37969;53.132;6.370;2024-03-17T13:05:24;12.07;;;8.10;;
51943;SDS011;37969;53.132;6.370;2024-03-17T13:07:53;12.23;;;9.00;;
51943;SDS011;37969;53.132;6.370;2024-03-17T13:12:57;11.45;;;9.02;;
51943;SDS011;37969;53.132;6.370;2024-03-17T13:15:25;12.63;;;8.95;;
51943;SDS011;37969;53.132;6.370;2024-03-17T13:17:55;12.98;;;8.77;;
51943;SDS011;37969;53.132;6.370;2024-03-17T13:20:22;11.52;;;8.23;;
51943;SDS011;37969;53.132;6.370;2024-03-17T13:22:49;12.35;;;8.68;;
51943;SDS011;37969;53.132;6.370;2024-03-17T13:25:18;13.13;;;9.30;;
51943;SDS011;37969;53.132;6.370;2024-03-17T13:27:48;9.32;;;8.32;;
51943;SDS011;37969;53.132;6.370;2024-03-17T13:30:18;12.55;;;9.40;;
51943;SDS011;37969;53.132;6.370;2024-03-17T13:32:51;10.85;;;8.82;;
51943;SDS011;37969;53.132;6.370;2024-03-17T13:35:24;10.88;;;8.30;;
51943;SDS011;37969;53.132;6.370;2024-03-17T13:37:52;11.38;;;8.90;;
51943;SDS011;37969;53.132;6.370;2024-03-17T13:40:19;10.73;;;8.43;;
51943;SDS011;37969;53.132;6.370;2024-03-17T13:42:49;9.80;;;8.70;;
51943;SDS011;37969;53.132;6.370;2024-03-17T13:45:16;10.85;;;8.57;;
51943;SDS011;37969;53.132;6.370;2024-03-17T13:47:49;9.38;;;7.93;;
51943;SDS011;37969;53.132;6.370;2024-03-17T13:50:17;10.95;;;8.75;;
51943;SDS011;37969;53.132;6.370;2024-03-17T13:52:44;8.57;;;7.65;;
51943;SDS011;37969;53.132;6.370;2024-03-17T13:57:43;10.60;;;8.18;;
51943;SDS011;37969;53.132;6.370;2024-03-17T14:00:09;10.90;;;8.32;;
51943;SDS011;37969;53.132;6.370;2024-03-17T14:02:43;13.57;;;8.57;;
51943;SDS011;37969;53.132;6.370;2024-03-17T14:05:16;10.20;;;8.88;;
51943;SDS011;37969;53.132;6.370;2024-03-17T14:07:45;10.77;;;8.13;;
51943;SDS011;37969;53.132;6.370;2024-03-17T14:10:15;11.00;;;8.50;;
51943;SDS011;37969;53.132;6.370;2024-03-17T14:12:44;9.25;;;7.88;;
51943;SDS011;37969;53.132;6.370;2024-03-17T14:15:12;10.10;;;7.78;;
51943;SDS011;37969;53.132;6.370;2024-03-17T14:17:39;12.90;;;8.70;;
51943;SDS011;37969;53.132;6.370;2024-03-17T14:20:08;11.25;;;8.50;;
51943;SDS011;37969;53.132;6.370;2024-03-17T14:22:38;12.20;;;8.40;;
51943;SDS011;37969;53.132;6.370;2024-03-17T14:25:08;12.13;;;9.10;;
51943;SDS011;37969;53.132;6.370;2024-03-17T14:27:36;10.00;;;8.43;;
51943;SDS011;37969;53.132;6.370;2024-03-17T14:30:06;12.68;;;8.10;;
51943;SDS011;37969;53.132;6.370;2024-03-17T14:32:38;9.93;;;8.27;;
51943;SDS011;37969;53.132;6.370;2024-03-17T14:35:04;9.95;;;8.60;;
51943;SDS011;37969;53.132;6.370;2024-03-17T14:37:34;9.88;;;8.50;;
51943;SDS011;37969;53.132;6.370;2024-03-17T14:40:01;10.98;;;8.23;;
51943;SDS011;37969;53.132;6.370;2024-03-17T14:42:31;12.35;;;8.82;;
51943;SDS011;37969;53.132;6.370;2024-03-17T14:44:58;9.13;;;8.00;;
51943;SDS011;37969;53.132;6.370;2024-03-17T14:47:25;10.32;;;7.93;;
51943;SDS011;37969;53.132;6.370;2024-03-17T14:49:52;13.65;;;8.35;;
51943;SDS011;37969;53.132;6.370;2024-03-17T14:52:20;10.48;;;7.80;;
51943;SDS011;37969;53.132;6.370;2024-03-17T14:54:47;12.00;;;8.32;;
51943;SDS011;37969;53.132;6.370;2024-03-17T14:57:16;10.55;;;8.98;;
51943;SDS011;37969;53.132;6.370;2024-03-17T14:59:45;11.48;;;8.60;;
51943;SDS011;37969;53.132;6.370;2024-03-17T15:02:11;10.75;;;8.75;;
51943;SDS011;37969;53.132;6.370;2024-03-17T15:04:40;9.27;;;8.30;;
51943;SDS011;37969;53.132;6.370;2024-03-17T15:07:10;12.57;;;8.48;;
51943;SDS011;37969;53.132;6.370;2024-03-17T15:09:37;11.07;;;9.05;;
51943;SDS011;37969;53.132;6.370;2024-03-17T15:12:07;11.88;;;8.95;;
51943;SDS011;37969;53.132;6.370;2024-03-17T15:14:36;10.38;;;9.18;;
51943;SDS011;37969;53.132;6.370;2024-03-17T15:17:03;11.02;;;9.20;;
51943;SDS011;37969;53.132;6.370;2024-03-17T15:19:35;12.23;;;9.18;;